sensor_id;sensor_type;location;lat;lon;timestamp;P1;durP1;ratioP1;P2;durP2;ratioP2
65996;SDS011;52765;52.258;21.052;2022-09-27T00:01:39;23.83;;;15.65;;
65996;SDS011;52765;52.258;21.052;2022-09-27T00:04:11;23.67;;;16.10;;
65996;SDS011;52765;52.258;21.052;2022-09-27T00:06:37;20.50;;;15.02;;
65996;SDS011;52765;52.258;21.052;2022-09-27T00:09:03;22.92;;;16.10;;
65996;SDS011;52765;52.258;21.052;2022-09-27T00:11:29;22.25;;;15.80;;
65996;SDS011;52765;52.258;21.052;2022-09-27T00:13:58;20.80;;;15.23;;
65996;SDS011;52765;52.258;21.052;2022-09-27T00:16:25;27.67;;;16.25;;
65996;SDS011;52765;52.258;21.052;2022-09-27T00:18:52;23.13;;;16.80;;
65996;SDS011;52765;52.258;21.052;2022-09-27T00:21:21;25.50;;;16.88;;
65996;SDS011;52765;52.258;21.052;2022-09-27T00:23:47;24.77;;;17.15;;
65996;SDS011;52765;52.258;21.052;2022-09-27T00:26:13;25.50;;;17.42;;
65996;SDS011;52765;52.258;21.052;2022-09-27T00:28:39;24.98;;;18.38;;
65996;SDS011;52765;52.258;21.052;2022-09-27T00:31:09;23.35;;;16.88;;
65996;SDS011;52765;52.258;21.052;2022-09-27T00:33:42;25.90;;;17.40;;
65996;SDS011;52765;52.258;21.052;2022-09-27T00:36:08;27.15;;;17.77;;
65996;SDS011;52765;52.258;21.052;2022-09-27T00:38:34;27.65;;;17.95;;
65996;SDS011;52765;52.258;21.052;2022-09-27T00:40:59;25.58;;;18.30;;
65996;SDS011;52765;52.258;21.052;2022-09-27T00:43:29;26.40;;;17.23;;
65996;SDS011;52765;52.258;21.052;2022-09-27T00:46:08;26.77;;;18.45;;
65996;SDS011;52765;52.258;21.052;2022-09-27T00:48:35;28.85;;;19.23;;
65996;SDS011;52765;52.258;21.052;2022-09-27T00:51:01;23.85;;;17.20;;
65996;SDS011;52765;52.258;21.052;2022-09-27T00:53:34;27.25;;;19.38;;
65996;SDS011;52765;52.258;21.052;2022-09-27T00:56:24;29.73;;;19.50;;
65996;SDS011;52765;52.258;21.052;2022-09-27T00:59:13;30.90;;;20.98;;
65996;SDS011;52765;52.258;21.052;2022-09-27T01:01:48;29.08;;;19.83;;
65996;SDS011;52765;52.258;21.052;2022-09-27T01:04:15;34.15;;;20.30;;
65996;SDS011;52765;52.258;21.052;2022-09-27T01:06:47;28.73;;;20.40;;
65996;SDS011;52765;52.258;21.052;2022-09-27T01:09:12;32.47;;;19.92;;
65996;SDS011;52765;52.258;21.052;2022-09-27T01:31:39;30.90;;;20.10;;
65996;SDS011;52765;52.258;21.052;2022-09-27T01:43:06;33.47;;;20.33;;
65996;SDS011;52765;52.258;21.052;2022-09-27T01:48:23;34.33;;;21.65;;
65996;SDS011;52765;52.258;21.052;2022-09-27T01:50:56;37.10;;;22.70;;
65996;SDS011;52765;52.258;21.052;2022-09-27T01:53:41;38.08;;;23.55;;
65996;SDS011;52765;52.258;21.052;2022-09-27T01:56:12;39.55;;;23.27;;
65996;SDS011;52765;52.258;21.052;2022-09-27T01:58:53;39.60;;;24.08;;
65996;SDS011;52765;52.258;21.052;2022-09-27T02:01:24;36.05;;;22.27;;
65996;SDS011;52765;52.258;21.052;2022-09-27T02:03:53;33.00;;;21.48;;
65996;SDS011;52765;52.258;21.052;2022-09-27T02:06:21;35.60;;;22.00;;
65996;SDS011;52765;52.258;21.052;2022-09-27T02:11:27;34.25;;;20.95;;
65996;SDS011;52765;52.258;21.052;2022-09-27T02:13:55;33.75;;;20.77;;
65996;SDS011;52765;52.258;21.052;2022-09-27T02:25:45;33.42;;;20.75;;
65996;SDS011;52765;52.258;21.052;2022-09-27T02:28:34;34.08;;;20.92;;
65996;SDS011;52765;52.258;21.052;2022-09-27T02:31:07;39.72;;;22.63;;
65996;SDS011;52765;52.258;21.052;2022-09-27T02:33:35;45.20;;;24.20;;
65996;SDS011;52765;52.258;21.052;2022-09-27T02:36:06;40.08;;;23.00;;
65996;SDS011;52765;52.258;21.052;2022-09-27T02:38:33;35.33;;;20.58;;
65996;SDS011;52765;52.258;21.052;2022-09-27T02:40:58;44.38;;;22.75;;
65996;SDS011;52765;52.258;21.052;2022-09-27T02:43:26;38.55;;;23.48;;
65996;SDS011;52765;52.258;21.052;2022-09-27T02:46:01;38.53;;;22.77;;
65996;SDS011;52765;52.258;21.052;2022-09-27T03:05:00;35.67;;;22.27;;
65996;SDS011;52765;52.258;21.052;2022-09-27T03:07:29;38.63;;;23.58;;
65996;SDS011;52765;52.258;21.052;2022-09-27T03:09:56;36.45;;;21.85;;
65996;SDS011;52765;52.258;21.052;2022-09-27T03:12:21;37.03;;;22.05;;
65996;SDS011;52765;52.258;21.052;2022-09-27T03:14:57;34.30;;;21.58;;
65996;SDS011;52765;52.258;21.052;2022-09-27T03:17:24;36.42;;;22.40;;
65996;SDS011;52765;52.258;21.052;2022-09-27T03:19:49;37.90;;;22.75;;
65996;SDS011;52765;52.258;21.052;2022-09-27T03:22:16;34.63;;;22.55;;
65996;SDS011;52765;52.258;21.052;2022-09-27T03:24:42;39.20;;;24.45;;
65996;SDS011;52765;52.258;21.052;2022-09-27T03:27:08;40.55;;;23.38;;
65996;SDS011;52765;52.258;21.052;2022-09-27T03:29:34;40.92;;;22.88;;
65996;SDS011;52765;52.258;21.052;2022-09-27T03:32:00;45.67;;;24.58;;
65996;SDS011;52765;52.258;21.052;2022-09-27T03:34:26;45.97;;;25.23;;
65996;SDS011;52765;52.258;21.052;2022-09-27T03:36:52;41.65;;;23.70;;
65996;SDS011;52765;52.258;21.052;2022-09-27T03:39:19;45.08;;;25.63;;
65996;SDS011;52765;52.258;21.052;2022-09-27T03:41:44;43.95;;;24.90;;
65996;SDS011;52765;52.258;21.052;2022-09-27T03:44:10;39.30;;;22.70;;
65996;SDS011;52765;52.258;21.052;2022-09-27T03:46:35;41.92;;;23.77;;
65996;SDS011;52765;52.258;21.052;2022-09-27T03:49:00;43.85;;;24.27;;
65996;SDS011;52765;52.258;21.052;2022-09-27T03:51:28;41.75;;;23.83;;
65996;SDS011;52765;52.258;21.052;2022-09-27T03:53:54;43.88;;;24.42;;
65996;SDS011;52765;52.258;21.052;2022-09-27T03:56:20;45.92;;;25.08;;
65996;SDS011;52765;52.258;21.052;2022-09-27T03:58:47;45.38;;;24.00;;
65996;SDS011;52765;52.258;21.052;2022-09-27T04:01:13;43.90;;;23.05;;
65996;SDS011;52765;52.258;21.052;2022-09-27T04:03:38;44.38;;;24.30;;
65996;SDS011;52765;52.258;21.052;2022-09-27T04:06:06;46.15;;;25.33;;
65996;SDS011;52765;52.258;21.052;2022-09-27T04:08:32;45.45;;;24.10;;
65996;SDS011;52765;52.258;21.052;2022-09-27T04:10:58;44.72;;;24.33;;
65996;SDS011;52765;52.258;21.052;2022-09-27T04:13:24;48.60;;;26.55;;
65996;SDS011;52765;52.258;21.052;2022-09-27T04:15:49;46.20;;;25.77;;
65996;SDS011;52765;52.258;21.052;2022-09-27T04:18:16;51.72;;;26.33;;
65996;SDS011;52765;52.258;21.052;2022-09-27T04:20:41;43.20;;;25.55;;
65996;SDS011;52765;52.258;21.052;2022-09-27T04:23:07;43.05;;;25.33;;
65996;SDS011;52765;52.258;21.052;2022-09-27T04:25:33;48.55;;;26.25;;
65996;SDS011;52765;52.258;21.052;2022-09-27T04:27:58;46.60;;;25.75;;
65996;SDS011;52765;52.258;21.052;2022-09-27T04:30:25;45.45;;;25.52;;
65996;SDS011;52765;52.258;21.052;2022-09-27T04:32:52;54.25;;;27.63;;
65996;SDS011;52765;52.258;21.052;2022-09-27T04:35:17;49.33;;;27.45;;
65996;SDS011;52765;52.258;21.052;2022-09-27T04:38:01;45.88;;;26.23;;
65996;SDS011;52765;52.258;21.052;2022-09-27T04:40:28;50.95;;;27.10;;
65996;SDS011;52765;52.258;21.052;2022-09-27T04:42:55;52.53;;;27.33;;
65996;SDS011;52765;52.258;21.052;2022-09-27T04:45:21;53.65;;;26.30;;
65996;SDS011;52765;52.258;21.052;2022-09-27T04:47:47;52.63;;;26.98;;
65996;SDS011;52765;52.258;21.052;2022-09-27T04:50:14;46.30;;;24.65;;
65996;SDS011;52765;52.258;21.052;2022-09-27T04:52:41;42.88;;;24.25;;
65996;SDS011;52765;52.258;21.052;2022-09-27T04:55:07;46.35;;;25.85;;
65996;SDS011;52765;52.258;21.052;2022-09-27T04:57:34;46.75;;;25.30;;
65996;SDS011;52765;52.258;21.052;2022-09-27T04:59:59;49.75;;;26.55;;
65996;SDS011;52765;52.258;21.052;2022-09-27T05:02:25;46.67;;;25.08;;
65996;SDS011;52765;52.258;21.052;2022-09-27T05:04:53;47.25;;;27.33;;
65996;SDS011;52765;52.258;21.052;2022-09-27T05:09:52;55.95;;;28.13;;
65996;SDS011;52765;52.258;21.052;2022-09-27T05:12:19;53.67;;;28.58;;
65996;SDS011;52765;52.258;21.052;2022-09-27T05:14:46;53.58;;;28.58;;
65996;SDS011;52765;52.258;21.052;2022-09-27T05:17:12;55.90;;;28.98;;
65996;SDS011;52765;52.258;21.052;2022-09-27T05:19:37;51.75;;;26.85;;
65996;SDS011;52765;52.258;21.052;2022-09-27T05:22:06;58.58;;;29.08;;
65996;SDS011;52765;52.258;21.052;2022-09-27T05:24:32;61.60;;;30.55;;
65996;SDS011;52765;52.258;21.052;2022-09-27T05:26:58;57.80;;;29.63;;
65996;SDS011;52765;52.258;21.052;2022-09-27T05:29:24;62.17;;;29.92;;
65996;SDS011;52765;52.258;21.052;2022-09-27T05:31:50;61.75;;;30.42;;
65996;SDS011;52765;52.258;21.052;2022-09-27T05:34:15;64.30;;;29.88;;
65996;SDS011;52765;52.258;21.052;2022-09-27T05:36:42;53.90;;;27.30;;
65996;SDS011;52765;52.258;21.052;2022-09-27T05:39:10;57.28;;;28.10;;
65996;SDS011;52765;52.258;21.052;2022-09-27T05:41:36;60.67;;;29.65;;
65996;SDS011;52765;52.258;21.052;2022-09-27T05:44:01;64.93;;;29.98;;
65996;SDS011;52765;52.258;21.052;2022-09-27T05:46:27;60.03;;;28.00;;
65996;SDS011;52765;52.258;21.052;2022-09-27T05:48:55;66.55;;;31.27;;
65996;SDS011;52765;52.258;21.052;2022-09-27T05:51:24;62.35;;;29.58;;
65996;SDS011;52765;52.258;21.052;2022-09-27T05:53:50;64.55;;;27.27;;
65996;SDS011;52765;52.258;21.052;2022-09-27T05:56:16;66.05;;;27.50;;
65996;SDS011;52765;52.258;21.052;2022-09-27T05:58:46;63.30;;;27.40;;
65996;SDS011;52765;52.258;21.052;2022-09-27T06:01:11;62.97;;;27.38;;
65996;SDS011;52765;52.258;21.052;2022-09-27T06:03:37;60.78;;;26.35;;
65996;SDS011;52765;52.258;21.052;2022-09-27T06:06:05;62.78;;;25.75;;
65996;SDS011;52765;52.258;21.052;2022-09-27T06:08:31;55.70;;;24.15;;
65996;SDS011;52765;52.258;21.052;2022-09-27T06:11:02;51.25;;;24.60;;
65996;SDS011;52765;52.258;21.052;2022-09-27T06:13:29;51.00;;;22.90;;
65996;SDS011;52765;52.258;21.052;2022-09-27T06:15:54;57.85;;;23.25;;
65996;SDS011;52765;52.258;21.052;2022-09-27T06:18:20;45.10;;;21.85;;
65996;SDS011;52765;52.258;21.052;2022-09-27T06:20:46;44.75;;;22.05;;
65996;SDS011;52765;52.258;21.052;2022-09-27T06:23:21;45.20;;;21.60;;
65996;SDS011;52765;52.258;21.052;2022-09-27T06:25:48;42.95;;;20.58;;
65996;SDS011;52765;52.258;21.052;2022-09-27T06:28:15;37.85;;;18.83;;
65996;SDS011;52765;52.258;21.052;2022-09-27T06:30:45;45.20;;;20.42;;
65996;SDS011;52765;52.258;21.052;2022-09-27T06:33:13;40.70;;;18.30;;
65996;SDS011;52765;52.258;21.052;2022-09-27T06:35:40;43.10;;;19.52;;
65996;SDS011;52765;52.258;21.052;2022-09-27T06:38:08;38.55;;;17.85;;
65996;SDS011;52765;52.258;21.052;2022-09-27T06:40:35;35.58;;;18.05;;
65996;SDS011;52765;52.258;21.052;2022-09-27T06:43:11;39.10;;;17.35;;
65996;SDS011;52765;52.258;21.052;2022-09-27T06:45:46;35.40;;;17.23;;
65996;SDS011;52765;52.258;21.052;2022-09-27T06:48:13;35.60;;;18.00;;
65996;SDS011;52765;52.258;21.052;2022-09-27T06:50:41;43.90;;;19.42;;
65996;SDS011;52765;52.258;21.052;2022-09-27T06:53:08;33.33;;;16.85;;
65996;SDS011;52765;52.258;21.052;2022-09-27T06:55:35;34.92;;;16.67;;
65996;SDS011;52765;52.258;21.052;2022-09-27T06:58:05;33.65;;;15.70;;
65996;SDS011;52765;52.258;21.052;2022-09-27T07:00:50;38.13;;;16.30;;
65996;SDS011;52765;52.258;21.052;2022-09-27T07:03:17;36.47;;;15.60;;
65996;SDS011;52765;52.258;21.052;2022-09-27T07:05:53;38.97;;;18.25;;
65996;SDS011;52765;52.258;21.052;2022-09-27T07:08:24;36.38;;;17.98;;
65996;SDS011;52765;52.258;21.052;2022-09-27T07:10:53;37.80;;;18.08;;
65996;SDS011;52765;52.258;21.052;2022-09-27T07:13:29;33.38;;;17.58;;
65996;SDS011;52765;52.258;21.052;2022-09-27T07:15:57;31.98;;;17.02;;
65996;SDS011;52765;52.258;21.052;2022-09-27T07:18:22;39.72;;;19.00;;
65996;SDS011;52765;52.258;21.052;2022-09-27T07:20:48;43.92;;;19.98;;
65996;SDS011;52765;52.258;21.052;2022-09-27T07:23:15;41.42;;;18.92;;
65996;SDS011;52765;52.258;21.052;2022-09-27T07:25:41;42.58;;;19.45;;
65996;SDS011;52765;52.258;21.052;2022-09-27T07:28:09;47.83;;;20.52;;
65996;SDS011;52765;52.258;21.052;2022-09-27T07:30:42;42.35;;;20.40;;
65996;SDS011;52765;52.258;21.052;2022-09-27T07:33:09;44.63;;;20.05;;
65996;SDS011;52765;52.258;21.052;2022-09-27T07:35:34;36.65;;;18.88;;
65996;SDS011;52765;52.258;21.052;2022-09-27T07:38:06;45.90;;;21.40;;
65996;SDS011;52765;52.258;21.052;2022-09-27T07:40:37;45.30;;;20.42;;
65996;SDS011;52765;52.258;21.052;2022-09-27T07:43:04;39.42;;;18.50;;
65996;SDS011;52765;52.258;21.052;2022-09-27T07:45:32;40.22;;;18.55;;
65996;SDS011;52765;52.258;21.052;2022-09-27T07:47:57;37.08;;;17.98;;
65996;SDS011;52765;52.258;21.052;2022-09-27T07:50:23;38.15;;;18.65;;
65996;SDS011;52765;52.258;21.052;2022-09-27T07:52:49;35.65;;;18.63;;
65996;SDS011;52765;52.258;21.052;2022-09-27T07:55:15;40.05;;;19.88;;
65996;SDS011;52765;52.258;21.052;2022-09-27T07:57:41;41.20;;;18.27;;
65996;SDS011;52765;52.258;21.052;2022-09-27T08:00:10;40.80;;;19.75;;
65996;SDS011;52765;52.258;21.052;2022-09-27T08:02:39;41.03;;;19.13;;
65996;SDS011;52765;52.258;21.052;2022-09-27T08:05:08;40.13;;;19.90;;
65996;SDS011;52765;52.258;21.052;2022-09-27T08:07:35;43.25;;;19.17;;
65996;SDS011;52765;52.258;21.052;2022-09-27T08:10:01;42.22;;;21.50;;
65996;SDS011;52765;52.258;21.052;2022-09-27T08:12:27;45.15;;;20.15;;
65996;SDS011;52765;52.258;21.052;2022-09-27T08:14:52;35.25;;;19.25;;
65996;SDS011;52765;52.258;21.052;2022-09-27T08:17:18;37.63;;;19.73;;
65996;SDS011;52765;52.258;21.052;2022-09-27T08:19:44;41.17;;;19.83;;
65996;SDS011;52765;52.258;21.052;2022-09-27T08:22:12;35.47;;;19.38;;
65996;SDS011;52765;52.258;21.052;2022-09-27T08:24:38;40.17;;;19.30;;
65996;SDS011;52765;52.258;21.052;2022-09-27T08:27:05;34.65;;;17.90;;
65996;SDS011;52765;52.258;21.052;2022-09-27T08:29:32;35.10;;;18.23;;
65996;SDS011;52765;52.258;21.052;2022-09-27T08:31:58;38.63;;;19.63;;
65996;SDS011;52765;52.258;21.052;2022-09-27T08:34:23;34.67;;;20.73;;
65996;SDS011;52765;52.258;21.052;2022-09-27T08:36:49;38.67;;;20.45;;
65996;SDS011;52765;52.258;21.052;2022-09-27T08:39:14;34.03;;;20.27;;
65996;SDS011;52765;52.258;21.052;2022-09-27T08:41:49;38.08;;;19.83;;
65996;SDS011;52765;52.258;21.052;2022-09-27T08:44:23;41.05;;;20.75;;
65996;SDS011;52765;52.258;21.052;2022-09-27T08:50:39;37.80;;;19.85;;
65996;SDS011;52765;52.258;21.052;2022-09-27T08:55:46;38.03;;;21.35;;
65996;SDS011;52765;52.258;21.052;2022-09-27T08:58:38;37.72;;;20.38;;
65996;SDS011;52765;52.258;21.052;2022-09-27T09:01:05;39.75;;;22.17;;
65996;SDS011;52765;52.258;21.052;2022-09-27T09:03:42;33.35;;;20.50;;
65996;SDS011;52765;52.258;21.052;2022-09-27T09:08:49;32.65;;;19.98;;
65996;SDS011;52765;52.258;21.052;2022-09-27T09:25:27;35.08;;;19.88;;
65996;SDS011;52765;52.258;21.052;2022-09-27T09:28:06;37.30;;;19.80;;
65996;SDS011;52765;52.258;21.052;2022-09-27T09:39:04;33.95;;;19.00;;
65996;SDS011;52765;52.258;21.052;2022-09-27T09:41:33;31.25;;;17.75;;
65996;SDS011;52765;52.258;21.052;2022-09-27T09:44:17;28.92;;;16.45;;
65996;SDS011;52765;52.258;21.052;2022-09-27T09:46:50;30.02;;;18.30;;
65996;SDS011;52765;52.258;21.052;2022-09-27T09:49:24;27.92;;;16.15;;
65996;SDS011;52765;52.258;21.052;2022-09-27T09:52:11;24.88;;;16.00;;
65996;SDS011;52765;52.258;21.052;2022-09-27T09:59:52;22.67;;;15.10;;
65996;SDS011;52765;52.258;21.052;2022-09-27T10:02:58;28.23;;;14.63;;
65996;SDS011;52765;52.258;21.052;2022-09-27T10:05:53;22.55;;;14.57;;
65996;SDS011;52765;52.258;21.052;2022-09-27T10:08:22;27.77;;;17.17;;
65996;SDS011;52765;52.258;21.052;2022-09-27T10:10:48;25.67;;;14.80;;
65996;SDS011;52765;52.258;21.052;2022-09-27T10:13:18;29.45;;;15.88;;
65996;SDS011;52765;52.258;21.052;2022-09-27T10:15:56;22.17;;;14.88;;
65996;SDS011;52765;52.258;21.052;2022-09-27T10:18:38;23.13;;;14.82;;
65996;SDS011;52765;52.258;21.052;2022-09-27T10:21:06;23.13;;;15.38;;
65996;SDS011;52765;52.258;21.052;2022-09-27T10:24:24;20.90;;;14.32;;
65996;SDS011;52765;52.258;21.052;2022-09-27T10:26:33;23.10;;;14.27;;
65996;SDS011;52765;52.258;21.052;2022-09-27T10:32:03;19.70;;;12.13;;
65996;SDS011;52765;52.258;21.052;2022-09-27T10:34:32;22.05;;;13.07;;
65996;SDS011;52765;52.258;21.052;2022-09-27T10:37:15;19.13;;;12.38;;
65996;SDS011;52765;52.258;21.052;2022-09-27T10:39:49;17.38;;;11.73;;
65996;SDS011;52765;52.258;21.052;2022-09-27T10:45:32;21.40;;;12.02;;
65996;SDS011;52765;52.258;21.052;2022-09-27T10:47:58;18.73;;;12.77;;
65996;SDS011;52765;52.258;21.052;2022-09-27T10:50:29;21.52;;;12.55;;
65996;SDS011;52765;52.258;21.052;2022-09-27T10:53:15;21.90;;;14.20;;
65996;SDS011;52765;52.258;21.052;2022-09-27T10:55:48;20.05;;;13.38;;
65996;SDS011;52765;52.258;21.052;2022-09-27T10:58:30;24.25;;;14.18;;
65996;SDS011;52765;52.258;21.052;2022-09-27T11:00:58;23.63;;;14.00;;
65996;SDS011;52765;52.258;21.052;2022-09-27T11:03:36;25.40;;;14.02;;
65996;SDS011;52765;52.258;21.052;2022-09-27T11:08:50;25.23;;;15.38;;
65996;SDS011;52765;52.258;21.052;2022-09-27T11:11:18;24.30;;;16.20;;
65996;SDS011;52765;52.258;21.052;2022-09-27T11:14:02;20.90;;;14.63;;
65996;SDS011;52765;52.258;21.052;2022-09-27T11:41:50;22.58;;;13.85;;
65996;SDS011;52765;52.258;21.052;2022-09-27T11:46:51;18.52;;;13.00;;
65996;SDS011;52765;52.258;21.052;2022-09-27T11:50:01;20.30;;;14.75;;
65996;SDS011;52765;52.258;21.052;2022-09-27T11:52:33;22.83;;;16.88;;
65996;SDS011;52765;52.258;21.052;2022-09-27T11:58:21;26.35;;;15.60;;
65996;SDS011;52765;52.258;21.052;2022-09-27T12:00:57;23.50;;;16.23;;
65996;SDS011;52765;52.258;21.052;2022-09-27T12:06:20;22.23;;;15.63;;
65996;SDS011;52765;52.258;21.052;2022-09-27T12:09:02;24.08;;;15.90;;
65996;SDS011;52765;52.258;21.052;2022-09-27T12:12:02;21.60;;;14.40;;
65996;SDS011;52765;52.258;21.052;2022-09-27T12:14:42;23.30;;;16.33;;
65996;SDS011;52765;52.258;21.052;2022-09-27T12:17:17;23.65;;;15.77;;
65996;SDS011;52765;52.258;21.052;2022-09-27T12:19:53;22.17;;;14.80;;
65996;SDS011;52765;52.258;21.052;2022-09-27T12:22:37;22.40;;;14.82;;
65996;SDS011;52765;52.258;21.052;2022-09-27T12:25:13;19.38;;;13.65;;
65996;SDS011;52765;52.258;21.052;2022-09-27T12:27:44;26.13;;;14.95;;
65996;SDS011;52765;52.258;21.052;2022-09-27T12:30:14;28.88;;;17.52;;
65996;SDS011;52765;52.258;21.052;2022-09-27T12:35:28;22.10;;;14.52;;
65996;SDS011;52765;52.258;21.052;2022-09-27T12:37:59;17.70;;;13.35;;
65996;SDS011;52765;52.258;21.052;2022-09-27T12:40:35;20.50;;;13.80;;
65996;SDS011;52765;52.258;21.052;2022-09-27T12:43:11;18.25;;;12.82;;
65996;SDS011;52765;52.258;21.052;2022-09-27T12:51:06;20.33;;;12.48;;
65996;SDS011;52765;52.258;21.052;2022-09-27T12:56:45;19.27;;;13.25;;
65996;SDS011;52765;52.258;21.052;2022-09-27T13:03:04;18.58;;;12.05;;
65996;SDS011;52765;52.258;21.052;2022-09-27T13:14:15;15.77;;;10.60;;
65996;SDS011;52765;52.258;21.052;2022-09-27T13:16:44;16.20;;;11.50;;
65996;SDS011;52765;52.258;21.052;2022-09-27T13:19:35;20.40;;;11.85;;
65996;SDS011;52765;52.258;21.052;2022-09-27T13:22:00;19.00;;;11.52;;
65996;SDS011;52765;52.258;21.052;2022-09-27T13:29:47;21.33;;;13.87;;
65996;SDS011;52765;52.258;21.052;2022-09-27T13:32:23;15.48;;;10.52;;
65996;SDS011;52765;52.258;21.052;2022-09-27T13:34:53;15.95;;;10.15;;
65996;SDS011;52765;52.258;21.052;2022-09-27T13:37:23;15.95;;;9.35;;
65996;SDS011;52765;52.258;21.052;2022-09-27T13:40:10;11.65;;;8.85;;
65996;SDS011;52765;52.258;21.052;2022-09-27T13:42:55;18.55;;;9.55;;
65996;SDS011;52765;52.258;21.052;2022-09-27T13:48:15;15.07;;;10.65;;
65996;SDS011;52765;52.258;21.052;2022-09-27T13:50:51;11.90;;;8.85;;
65996;SDS011;52765;52.258;21.052;2022-09-27T13:55:59;20.10;;;10.60;;
65996;SDS011;52765;52.258;21.052;2022-09-27T14:00:51;14.88;;;9.63;;
65996;SDS011;52765;52.258;21.052;2022-09-27T14:03:29;20.25;;;9.85;;
65996;SDS011;52765;52.258;21.052;2022-09-27T14:06:00;9.60;;;7.53;;
65996;SDS011;52765;52.258;21.052;2022-09-27T14:08:34;11.45;;;8.52;;
65996;SDS011;52765;52.258;21.052;2022-09-27T14:11:11;12.98;;;8.52;;
65996;SDS011;52765;52.258;21.052;2022-09-27T14:13:41;13.65;;;8.50;;
65996;SDS011;52765;52.258;21.052;2022-09-27T14:16:12;11.50;;;7.45;;
65996;SDS011;52765;52.258;21.052;2022-09-27T14:18:42;9.73;;;7.68;;
65996;SDS011;52765;52.258;21.052;2022-09-27T14:26:46;10.25;;;7.78;;
65996;SDS011;52765;52.258;21.052;2022-09-27T14:29:19;12.77;;;8.00;;
65996;SDS011;52765;52.258;21.052;2022-09-27T14:31:46;15.77;;;9.73;;
65996;SDS011;52765;52.258;21.052;2022-09-27T14:34:27;10.32;;;8.43;;
65996;SDS011;52765;52.258;21.052;2022-09-27T14:36:53;13.65;;;9.18;;
65996;SDS011;52765;52.258;21.052;2022-09-27T14:39:38;10.60;;;8.30;;
65996;SDS011;52765;52.258;21.052;2022-09-27T14:42:16;13.48;;;8.45;;
65996;SDS011;52765;52.258;21.052;2022-09-27T14:44:45;14.88;;;8.75;;
65996;SDS011;52765;52.258;21.052;2022-09-27T14:47:17;15.48;;;9.55;;
65996;SDS011;52765;52.258;21.052;2022-09-27T14:49:50;14.15;;;9.15;;
65996;SDS011;52765;52.258;21.052;2022-09-27T14:52:22;14.50;;;9.27;;
65996;SDS011;52765;52.258;21.052;2022-09-27T14:57:30;11.88;;;8.38;;
65996;SDS011;52765;52.258;21.052;2022-09-27T15:00:01;12.52;;;8.75;;
65996;SDS011;52765;52.258;21.052;2022-09-27T15:02:41;11.68;;;8.05;;
65996;SDS011;52765;52.258;21.052;2022-09-27T15:05:18;11.13;;;7.78;;
65996;SDS011;52765;52.258;21.052;2022-09-27T15:07:45;11.95;;;9.25;;
65996;SDS011;52765;52.258;21.052;2022-09-27T15:10:13;12.77;;;8.90;;
65996;SDS011;52765;52.258;21.052;2022-09-27T15:12:44;12.05;;;8.43;;
65996;SDS011;52765;52.258;21.052;2022-09-27T15:15:34;11.32;;;9.05;;
65996;SDS011;52765;52.258;21.052;2022-09-27T15:18:01;14.15;;;9.13;;
65996;SDS011;52765;52.258;21.052;2022-09-27T15:20:28;16.48;;;8.93;;
65996;SDS011;52765;52.258;21.052;2022-09-27T15:22:57;16.45;;;8.32;;
65996;SDS011;52765;52.258;21.052;2022-09-27T15:25:30;14.68;;;9.10;;
65996;SDS011;52765;52.258;21.052;2022-09-27T15:30:37;13.13;;;8.13;;
65996;SDS011;52765;52.258;21.052;2022-09-27T15:36:03;9.85;;;7.70;;
65996;SDS011;52765;52.258;21.052;2022-09-27T15:41:06;12.90;;;9.55;;
65996;SDS011;52765;52.258;21.052;2022-09-27T15:43:38;12.13;;;8.55;;
65996;SDS011;52765;52.258;21.052;2022-09-27T15:49:31;14.27;;;9.63;;
65996;SDS011;52765;52.258;21.052;2022-09-27T15:51:44;15.00;;;9.80;;
65996;SDS011;52765;52.258;21.052;2022-09-27T15:54:11;12.70;;;8.65;;
65996;SDS011;52765;52.258;21.052;2022-09-27T15:56:38;16.48;;;9.52;;
65996;SDS011;52765;52.258;21.052;2022-09-27T15:59:04;10.68;;;8.40;;
65996;SDS011;52765;52.258;21.052;2022-09-27T16:01:31;12.40;;;8.10;;
65996;SDS011;52765;52.258;21.052;2022-09-27T16:03:58;12.27;;;9.38;;
65996;SDS011;52765;52.258;21.052;2022-09-27T16:06:25;11.48;;;9.00;;
65996;SDS011;52765;52.258;21.052;2022-09-27T16:08:54;15.35;;;8.73;;
65996;SDS011;52765;52.258;21.052;2022-09-27T16:11:20;13.10;;;8.48;;
65996;SDS011;52765;52.258;21.052;2022-09-27T16:13:46;12.75;;;9.10;;
65996;SDS011;52765;52.258;21.052;2022-09-27T16:16:13;12.80;;;8.95;;
65996;SDS011;52765;52.258;21.052;2022-09-27T16:18:42;10.35;;;8.40;;
65996;SDS011;52765;52.258;21.052;2022-09-27T16:21:09;11.82;;;8.45;;
65996;SDS011;52765;52.258;21.052;2022-09-27T16:23:34;14.52;;;8.57;;
65996;SDS011;52765;52.258;21.052;2022-09-27T16:26:00;11.40;;;8.45;;
65996;SDS011;52765;52.258;21.052;2022-09-27T16:28:26;13.00;;;9.25;;
65996;SDS011;52765;52.258;21.052;2022-09-27T16:30:51;11.35;;;8.90;;
65996;SDS011;52765;52.258;21.052;2022-09-27T16:33:17;12.10;;;8.88;;
65996;SDS011;52765;52.258;21.052;2022-09-27T16:35:43;14.00;;;8.80;;
65996;SDS011;52765;52.258;21.052;2022-09-27T16:38:10;13.68;;;9.65;;
65996;SDS011;52765;52.258;21.052;2022-09-27T16:40:36;14.23;;;9.80;;
65996;SDS011;52765;52.258;21.052;2022-09-27T16:43:03;12.10;;;9.23;;
65996;SDS011;52765;52.258;21.052;2022-09-27T16:45:31;14.13;;;9.68;;
65996;SDS011;52765;52.258;21.052;2022-09-27T16:48:02;13.15;;;9.35;;
65996;SDS011;52765;52.258;21.052;2022-09-27T16:50:28;14.85;;;9.55;;
65996;SDS011;52765;52.258;21.052;2022-09-27T16:53:12;13.63;;;9.88;;
65996;SDS011;52765;52.258;21.052;2022-09-27T16:55:37;13.45;;;10.27;;
65996;SDS011;52765;52.258;21.052;2022-09-27T16:58:03;12.75;;;9.73;;
65996;SDS011;52765;52.258;21.052;2022-09-27T17:00:30;13.32;;;10.40;;
65996;SDS011;52765;52.258;21.052;2022-09-27T17:02:57;14.85;;;10.15;;
65996;SDS011;52765;52.258;21.052;2022-09-27T17:05:23;15.80;;;10.73;;
65996;SDS011;52765;52.258;21.052;2022-09-27T17:07:50;17.45;;;10.35;;
65996;SDS011;52765;52.258;21.052;2022-09-27T17:10:19;20.75;;;10.80;;
65996;SDS011;52765;52.258;21.052;2022-09-27T17:12:46;16.55;;;10.90;;
65996;SDS011;52765;52.258;21.052;2022-09-27T17:15:13;17.80;;;11.23;;
65996;SDS011;52765;52.258;21.052;2022-09-27T17:17:39;14.52;;;11.43;;
65996;SDS011;52765;52.258;21.052;2022-09-27T17:20:05;14.00;;;10.38;;
65996;SDS011;52765;52.258;21.052;2022-09-27T17:22:31;17.73;;;10.60;;
65996;SDS011;52765;52.258;21.052;2022-09-27T17:24:56;15.57;;;11.05;;
65996;SDS011;52765;52.258;21.052;2022-09-27T17:27:22;14.15;;;10.57;;
65996;SDS011;52765;52.258;21.052;2022-09-27T17:29:52;15.63;;;10.32;;
65996;SDS011;52765;52.258;21.052;2022-09-27T17:32:22;13.85;;;10.02;;
65996;SDS011;52765;52.258;21.052;2022-09-27T17:34:51;20.23;;;11.13;;
65996;SDS011;52765;52.258;21.052;2022-09-27T17:37:17;16.73;;;10.23;;
65996;SDS011;52765;52.258;21.052;2022-09-27T17:39:43;15.52;;;11.18;;
65996;SDS011;52765;52.258;21.052;2022-09-27T17:42:08;14.60;;;10.35;;
65996;SDS011;52765;52.258;21.052;2022-09-27T17:44:35;15.93;;;10.80;;
65996;SDS011;52765;52.258;21.052;2022-09-27T17:47:01;15.40;;;10.82;;